createdAt,value
2018-12-29T00:00:09.707Z,13.53
2018-12-29T00:05:29.434Z,17.47
2018-12-29T00:08:15.863Z,17.17
2018-12-29T00:10:42.095Z,17.80
2018-12-29T00:13:41.753Z,17.73
2018-12-29T00:16:23.223Z,15.50
2018-12-29T00:19:04.667Z,17.60
2018-12-29T00:21:30.791Z,16.30
2018-12-29T00:24:16.725Z,18.87
2018-12-29T00:27:00.551Z,16.70
2018-12-29T00:29:43.468Z,21.03
2018-12-29T00:32:26.624Z,18.80
2018-12-29T00:35:12.808Z,20.40
2018-12-29T00:41:10.148Z,29.53
2018-12-29T00:43:51.341Z,26.73
2018-12-29T00:46:53.144Z,26.47
2018-12-29T00:49:19.217Z,30.77
2018-12-29T00:52:00.218Z,29.53
2018-12-29T00:54:42.164Z,29.87
2018-12-29T00:57:08.219Z,29.63
2018-12-29T00:59:40.652Z,35.33
2018-12-29T01:02:33.416Z,42.60
2018-12-29T01:04:59.457Z,43.40
2018-12-29T01:07:45.336Z,46.77
2018-12-29T01:13:53.692Z,41.23
2018-12-29T01:16:40.630Z,33.80
2018-12-29T01:19:23.742Z,37.90
2018-12-29T01:22:09.908Z,41.70
2018-12-29T01:27:45.136Z,49.00
2018-12-29T01:36:03.786Z,49.17
2018-12-29T01:38:29.871Z,46.50
2018-12-29T01:41:13.682Z,46.63
2018-12-29T01:43:59.981Z,43.93
2018-12-29T01:46:43.305Z,41.77
2018-12-29T01:49:33.366Z,39.90
2018-12-29T01:52:13.757Z,43.43
2018-12-29T01:55:13.603Z,37.00
2018-12-29T01:57:59.603Z,39.23
2018-12-29T02:00:25.713Z,32.60
2018-12-29T02:03:10.297Z,30.70
2018-12-29T02:18:53.345Z,28.40
2018-12-29T02:25:03.736Z,30.67
2018-12-29T02:31:10.300Z,32.80
2018-12-29T02:33:53.358Z,36.23
2018-12-29T02:36:36.365Z,30.50
2018-12-29T02:39:19.509Z,29.57
2018-12-29T02:44:56.630Z,38.00
2018-12-29T02:50:08.307Z,36.33
2018-12-29T02:55:49.934Z,38.13
2018-12-29T02:58:15.952Z,40.23
2018-12-29T03:00:59.712Z,40.00
2018-12-29T03:03:45.902Z,39.07
2018-12-29T03:06:29.271Z,42.10
2018-12-29T03:09:10.492Z,41.30
2018-12-29T03:11:36.561Z,40.87
2018-12-29T03:14:22.121Z,40.13
2018-12-29T03:17:08.662Z,40.80
2018-12-29T03:19:54.920Z,39.20
2018-12-29T03:22:21.049Z,46.47
2018-12-29T03:25:04.187Z,42.50
2018-12-29T03:27:44.325Z,37.77
2018-12-29T03:30:27.541Z,38.73
2018-12-29T03:33:10.660Z,46.03
2018-12-29T03:35:36.834Z,46.00
2018-12-29T03:44:28.320Z,40.60
2018-12-29T03:47:11.418Z,45.10
2018-12-29T03:49:54.459Z,37.97
2018-12-29T03:52:35.698Z,38.27
2018-12-29T03:55:21.657Z,38.57
2018-12-29T03:58:08.536Z,41.80
2018-12-29T04:00:54.716Z,42.13
2018-12-29T04:03:20.855Z,42.13
2018-12-29T04:06:03.824Z,37.67
2018-12-29T04:08:45.018Z,39.13
2018-12-29T04:14:56.335Z,38.20
2018-12-29T04:17:37.353Z,41.73
2018-12-29T04:20:20.497Z,36.97
2018-12-29T04:22:46.638Z,33.87
2018-12-29T04:26:12.497Z,35.57
2018-12-29T04:28:38.643Z,34.60
2018-12-29T04:31:04.787Z,34.37
2018-12-29T04:33:30.809Z,35.07
2018-12-29T04:39:47.171Z,35.63
2018-12-29T04:42:30.271Z,37.33
2018-12-29T04:45:29.195Z,35.30
2018-12-29T04:47:55.215Z,36.23
2018-12-29T04:50:21.233Z,39.60
2018-12-29T04:53:04.461Z,33.37
2018-12-29T04:55:30.551Z,36.00
2018-12-29T04:57:56.563Z,38.07
2018-12-29T05:00:39.820Z,37.50
2018-12-29T05:03:22.809Z,34.07
2018-12-29T05:06:04.104Z,35.53
2018-12-29T05:08:30.243Z,32.00
2018-12-29T05:11:16.245Z,35.87
2018-12-29T05:17:46.687Z,31.67
2018-12-29T05:20:37.148Z,27.67
2018-12-29T05:23:03.148Z,31.20
2018-12-29T05:25:50.447Z,31.37
2018-12-29T05:28:31.864Z,31.40
2018-12-29T05:34:36.980Z,33.93
2018-12-29T05:40:04.252Z,30.33
2018-12-29T05:42:44.329Z,28.77
2018-12-29T05:45:10.356Z,29.67
2018-12-29T05:47:36.366Z,31.53
2018-12-29T05:50:17.970Z,31.07
2018-12-29T05:52:44.063Z,32.93
2018-12-29T05:59:34.346Z,30.67
2018-12-29T06:02:15.659Z,33.53
2018-12-29T06:05:02.728Z,36.33
2018-12-29T06:10:43.477Z,26.63
2018-12-29T06:16:19.721Z,38.33
2018-12-29T06:21:54.008Z,30.17
2018-12-29T06:24:37.182Z,32.90
2018-12-29T06:30:32.664Z,38.17
2018-12-29T06:33:18.785Z,37.40
2018-12-29T06:36:00.052Z,34.97
2018-12-29T06:42:10.316Z,39.60
2018-12-29T06:47:42.856Z,42.63
2018-12-29T06:53:56.916Z,58.47
2018-12-29T07:02:00.865Z,42.83
2018-12-29T07:04:26.887Z,38.80
2018-12-29T07:12:52.154Z,41.23
2018-12-29T07:15:33.698Z,44.40
2018-12-29T07:18:16.888Z,34.67
2018-12-29T07:21:03.691Z,38.60
2018-12-29T07:26:41.568Z,37.13
2018-12-29T07:32:50.903Z,36.37
2018-12-29T07:35:17.046Z,34.53
2018-12-29T07:37:49.205Z,37.33
2018-12-29T07:40:35.142Z,37.60
2018-12-29T07:43:17.006Z,32.20
2018-12-29T07:45:43.399Z,30.90
2018-12-29T07:52:06.080Z,35.80
2018-12-29T07:54:32.229Z,26.63
2018-12-29T07:56:58.333Z,31.17
2018-12-29T08:05:37.373Z,26.57
2018-12-29T08:08:03.641Z,23.00
2018-12-29T08:10:50.372Z,19.23
2018-12-29T08:13:16.401Z,25.20
2018-12-29T08:15:57.587Z,22.93
2018-12-29T08:18:40.780Z,22.50
2018-12-29T08:27:22.807Z,21.33
2018-12-29T08:30:06.035Z,21.40
2018-12-29T08:32:32.084Z,18.47
2018-12-29T08:34:58.092Z,19.77
2018-12-29T08:37:40.946Z,17.33
2018-12-29T08:43:46.281Z,20.20
2018-12-29T08:46:30.477Z,17.33
2018-12-29T08:58:21.000Z,14.73
2018-12-29T09:01:02.154Z,12.30
2018-12-29T09:03:45.203Z,14.97
2018-12-29T09:08:56.940Z,12.33
2018-12-29T09:11:38.023Z,11.27
2018-12-29T09:14:04.094Z,13.17
2018-12-29T09:16:50.105Z,12.33
2018-12-29T09:19:37.072Z,9.00
2018-12-29T09:22:03.083Z,9.70
2018-12-29T09:24:44.980Z,8.63
2018-12-29T09:27:11.078Z,8.40
2018-12-29T09:32:44.780Z,10.40
2018-12-29T09:35:30.972Z,7.87
2018-12-29T09:41:12.518Z,8.27
2018-12-29T09:43:53.215Z,9.07
2018-12-29T09:49:11.677Z,8.40
2018-12-29T09:51:54.726Z,8.17
2018-12-29T09:54:37.832Z,8.00
2018-12-29T09:57:03.843Z,9.73
2018-12-29T09:59:47.514Z,9.20
2018-12-29T10:02:13.544Z,8.73
2018-12-29T10:08:27.008Z,9.93
2018-12-29T10:11:10.263Z,7.40
2018-12-29T10:13:53.374Z,11.20
2018-12-29T10:19:26.715Z,8.83
2018-12-29T10:25:05.874Z,9.20
2018-12-29T10:27:31.911Z,11.37
2018-12-29T10:30:13.198Z,11.23
2018-12-29T10:32:56.416Z,7.53
2018-12-29T10:38:47.836Z,10.20
2018-12-29T10:41:36.233Z,14.63
2018-12-29T10:44:04.222Z,11.63
2018-12-29T10:49:59.249Z,9.63
2018-12-29T10:52:45.304Z,6.70
2018-12-29T11:01:26.975Z,9.57
2018-12-29T11:04:10.129Z,8.87
2018-12-29T11:06:51.015Z,10.20
2018-12-29T11:18:20.164Z,8.93
2018-12-29T11:21:00.045Z,13.50
2018-12-29T11:24:01.451Z,11.43
2018-12-29T11:28:57.121Z,13.70
2018-12-29T11:31:37.271Z,11.30
2018-12-29T11:34:18.268Z,10.67
2018-12-29T11:37:00.221Z,10.83
2018-12-29T11:39:43.404Z,13.47
2018-12-29T11:42:30.169Z,11.93
2018-12-29T11:44:56.219Z,12.70
2018-12-29T11:47:22.251Z,14.73
2018-12-29T11:53:31.422Z,14.30
2018-12-29T11:56:13.495Z,13.60
2018-12-29T11:58:39.616Z,10.03
2018-12-29T12:10:47.819Z,12.40
2018-12-29T12:13:29.016Z,8.93
2018-12-29T12:16:11.112Z,14.50
2018-12-29T12:18:37.253Z,10.37
2018-12-29T12:21:03.361Z,15.13
2018-12-29T12:23:43.284Z,14.53
2018-12-29T12:26:26.525Z,11.17
2018-12-29T12:32:08.745Z,10.60
2018-12-29T12:34:34.870Z,10.60
2018-12-29T12:37:17.804Z,8.53
2018-12-29T12:40:01.101Z,11.30
2018-12-29T12:43:00.948Z,10.73
2018-12-29T12:45:27.059Z,7.33
2018-12-29T12:47:53.188Z,7.87
2018-12-29T12:50:19.302Z,12.80
2018-12-29T12:53:05.380Z,8.70
2018-12-29T12:55:49.415Z,9.17
2018-12-29T12:58:30.791Z,7.60
2018-12-29T13:00:57.254Z,12.43
2018-12-29T13:03:45.085Z,7.20
2018-12-29T13:06:11.340Z,8.10
2018-12-29T13:08:57.915Z,11.73
2018-12-29T13:11:39.863Z,10.43
2018-12-29T13:17:43.263Z,7.30
2018-12-29T13:20:23.150Z,8.53
2018-12-29T13:25:40.878Z,11.43
2018-12-29T13:28:06.991Z,9.07
2018-12-29T13:33:51.139Z,9.10
2018-12-29T13:36:37.132Z,10.77
2018-12-29T13:41:57.725Z,11.30
2018-12-29T13:47:42.145Z,11.53
2018-12-29T13:50:25.765Z,9.97
2018-12-29T14:09:18.060Z,13.93
2018-12-29T14:11:44.211Z,17.00
2018-12-29T14:14:10.312Z,20.10
2018-12-29T14:26:07.057Z,25.73
2018-12-29T14:28:33.166Z,22.10
2018-12-29T14:31:14.381Z,23.50
2018-12-29T14:46:07.440Z,24.43
2018-12-29T14:48:47.556Z,25.30
2018-12-29T14:51:13.719Z,25.57
2018-12-29T14:53:39.814Z,30.90
2018-12-29T14:59:11.129Z,35.20
2018-12-29T15:10:50.449Z,33.50
2018-12-29T15:13:25.171Z,32.63
2018-12-29T15:16:06.075Z,31.83
2018-12-29T15:18:49.254Z,32.83
2018-12-29T15:24:18.924Z,35.90
2018-12-29T15:27:01.935Z,34.77
2018-12-29T15:29:43.897Z,42.07
2018-12-29T15:32:26.033Z,33.10
2018-12-29T15:35:13.997Z,43.97
2018-12-29T15:37:40.228Z,42.70
2018-12-29T15:44:07.120Z,38.57
2018-12-29T15:46:50.339Z,39.03
2018-12-29T15:49:16.457Z,42.47
2018-12-29T15:51:56.596Z,39.60
2018-12-29T15:54:42.727Z,44.80
2018-12-29T15:57:29.168Z,39.90
2018-12-29T16:00:12.440Z,41.60
2018-12-29T16:02:52.340Z,40.03
2018-12-29T16:08:20.009Z,39.20
2018-12-29T16:11:00.738Z,50.17
2018-12-29T16:13:46.551Z,40.27
2018-12-29T16:16:12.794Z,39.03
2018-12-29T16:18:58.907Z,38.00
2018-12-29T16:21:24.259Z,39.60
2018-12-29T16:23:50.399Z,38.50
2018-12-29T16:26:36.379Z,39.10
2018-12-29T16:35:24.661Z,38.30
2018-12-29T16:37:51.076Z,38.53
2018-12-29T16:40:30.867Z,38.73
2018-12-29T16:43:10.756Z,47.17
2018-12-29T16:45:54.554Z,40.23
2018-12-29T16:48:37.703Z,43.37
2018-12-29T16:51:20.691Z,37.60
2018-12-29T16:54:07.028Z,38.50
2018-12-29T16:56:33.539Z,41.13
2018-12-29T17:02:30.036Z,45.63
2018-12-29T17:05:13.180Z,46.30
2018-12-29T17:07:53.246Z,46.70
2018-12-29T17:13:44.003Z,49.63
2018-12-29T17:16:16.967Z,51.40
2018-12-29T17:19:02.923Z,54.33
2018-12-29T17:21:29.105Z,48.20
2018-12-29T17:24:32.815Z,50.83
2018-12-29T17:27:16.003Z,52.30
2018-12-29T17:29:56.426Z,56.30
2018-12-29T17:32:39.396Z,60.83
2018-12-29T17:35:23.341Z,54.40
2018-12-29T17:37:49.508Z,53.10
2018-12-29T17:40:35.541Z,54.03
2018-12-29T17:49:44.723Z,44.27
2018-12-29T17:55:34.852Z,42.00
2018-12-29T17:58:18.025Z,47.70
2018-12-29T18:01:01.194Z,41.00
2018-12-29T18:03:44.228Z,46.73
2018-12-29T18:06:10.930Z,42.90
2018-12-29T18:12:24.617Z,52.07
2018-12-29T18:15:11.652Z,44.07
2018-12-29T18:17:38.095Z,51.20
2018-12-29T18:26:47.450Z,39.10
2018-12-29T18:29:13.598Z,42.20
2018-12-29T18:31:57.148Z,39.27
2018-12-29T18:34:23.272Z,38.40
2018-12-29T18:37:09.278Z,39.70
2018-12-29T18:39:35.409Z,37.33
2018-12-29T18:45:42.682Z,34.27
2018-12-29T18:48:08.994Z,36.67
2018-12-29T18:56:45.720Z,33.07
2018-12-29T19:02:20.968Z,28.20
2018-12-29T19:04:47.106Z,36.03
2018-12-29T19:07:21.396Z,33.07
2018-12-29T19:09:47.572Z,29.73
2018-12-29T19:16:11.309Z,34.60
2018-12-29T19:18:41.437Z,32.20
2018-12-29T19:21:12.041Z,32.00
2018-12-29T19:24:27.971Z,34.07
2018-12-29T19:27:11.057Z,32.73
2018-12-29T19:29:55.370Z,32.03
2018-12-29T19:35:46.971Z,29.40
2018-12-29T19:38:21.368Z,34.90
2018-12-29T19:41:07.379Z,31.93
2018-12-29T19:43:34.118Z,36.80
2018-12-29T19:46:08.347Z,36.53
2018-12-29T19:48:54.363Z,36.70
2018-12-29T19:51:20.503Z,30.90
2018-12-29T19:54:10.063Z,34.50
2018-12-29T19:59:40.334Z,36.30
2018-12-29T20:05:34.958Z,34.07
2018-12-29T20:08:21.739Z,34.97
2018-12-29T20:11:07.978Z,35.53
2018-12-29T20:13:34.129Z,34.20
2018-12-29T20:16:20.157Z,35.30
2018-12-29T20:18:46.265Z,31.07
2018-12-29T20:21:27.987Z,34.10
2018-12-29T20:23:54.072Z,36.23
2018-12-29T20:26:40.117Z,33.10
2018-12-29T20:29:26.385Z,31.23
2018-12-29T20:35:08.777Z,31.93
2018-12-29T20:37:49.830Z,33.63
2018-12-29T20:40:15.980Z,35.30
2018-12-29T20:42:59.884Z,35.00
2018-12-29T20:45:26.052Z,33.20
2018-12-29T20:48:13.029Z,32.23
2018-12-29T20:50:56.097Z,29.80
2018-12-29T20:53:37.291Z,34.20
2018-12-29T20:56:21.361Z,30.73
2018-12-29T20:59:04.749Z,30.97
2018-12-29T21:01:30.887Z,32.33
2018-12-29T21:04:38.877Z,32.17
2018-12-29T21:07:20.168Z,33.43
2018-12-29T21:09:46.291Z,33.17
2018-12-29T21:12:12.319Z,35.40
2018-12-29T21:18:18.431Z,34.67
2018-12-29T21:20:44.890Z,30.50
2018-12-29T21:23:28.549Z,29.80
2018-12-29T21:26:14.636Z,35.63
2018-12-29T21:32:04.008Z,28.40
2018-12-29T21:34:30.147Z,26.80
2018-12-29T21:37:18.115Z,24.90
2018-12-29T21:40:00.251Z,26.70
2018-12-29T21:42:47.232Z,25.33
2018-12-29T21:48:19.755Z,22.30
2018-12-29T21:57:37.922Z,20.63
2018-12-29T22:00:23.974Z,19.37
2018-12-29T22:02:50.151Z,20.47
2018-12-29T22:05:36.177Z,19.03
2018-12-29T22:08:17.766Z,17.67
2018-12-29T22:10:59.653Z,20.63
2018-12-29T22:13:42.780Z,16.70
2018-12-29T22:16:33.778Z,16.73
2018-12-29T22:19:18.077Z,17.00
2018-12-29T22:22:01.121Z,17.37
2018-12-29T22:24:27.297Z,15.00
2018-12-29T22:27:13.475Z,16.67
2018-12-29T22:33:02.681Z,13.40
2018-12-29T22:35:50.803Z,12.77
2018-12-29T22:38:33.133Z,12.80
2018-12-29T22:41:14.183Z,13.67
2018-12-29T22:50:15.719Z,12.87
2018-12-29T22:56:27.200Z,12.47
2018-12-29T22:59:13.489Z,10.97
2018-12-29T23:01:56.665Z,11.47
2018-12-29T23:07:46.601Z,11.57
2018-12-29T23:10:34.520Z,10.33
2018-12-29T23:15:58.352Z,9.77
2018-12-29T23:18:40.859Z,10.50
2018-12-29T23:21:06.998Z,8.27
2018-12-29T23:23:54.027Z,11.53
2018-12-29T23:30:07.745Z,7.43
2018-12-29T23:32:33.914Z,6.73
2018-12-29T23:35:20.659Z,8.17
2018-12-29T23:37:48.305Z,7.03
2018-12-29T23:40:34.443Z,5.93
2018-12-29T23:43:16.078Z,7.67
2018-12-29T23:45:42.236Z,6.73
2018-12-29T23:51:34.974Z,5.40
